sensor_id;sensor_type;location;lat;lon;timestamp;P1;durP1;ratioP1;P2;durP2;ratioP2
71104;SDS011;58760;48.716;8.962;2023-05-07T00:00:43;7.30;;;3.08;;
71104;SDS011;58760;48.716;8.962;2023-05-07T00:03:09;6.72;;;3.28;;
71104;SDS011;58760;48.716;8.962;2023-05-07T00:05:34;6.30;;;2.88;;
71104;SDS011;58760;48.716;8.962;2023-05-07T00:08:00;5.22;;;2.78;;
71104;SDS011;58760;48.716;8.962;2023-05-07T00:10:25;7.95;;;2.90;;
71104;SDS011;58760;48.716;8.962;2023-05-07T00:12:51;7.03;;;3.15;;
71104;SDS011;58760;48.716;8.962;2023-05-07T00:15:16;7.95;;;3.20;;
71104;SDS011;58760;48.716;8.962;2023-05-07T00:17:42;7.88;;;3.83;;
71104;SDS011;58760;48.716;8.962;2023-05-07T00:20:07;9.20;;;4.03;;
71104;SDS011;58760;48.716;8.962;2023-05-07T00:22:33;8.52;;;3.85;;
71104;SDS011;58760;48.716;8.962;2023-05-07T00:24:58;9.43;;;4.10;;
71104;SDS011;58760;48.716;8.962;2023-05-07T00:27:24;6.75;;;3.63;;
71104;SDS011;58760;48.716;8.962;2023-05-07T00:29:50;8.68;;;4.20;;
71104;SDS011;58760;48.716;8.962;2023-05-07T00:32:15;7.93;;;4.07;;
71104;SDS011;58760;48.716;8.962;2023-05-07T00:34:41;9.15;;;4.00;;
71104;SDS011;58760;48.716;8.962;2023-05-07T00:37:06;9.85;;;3.72;;
71104;SDS011;58760;48.716;8.962;2023-05-07T00:39:34;8.30;;;3.63;;
71104;SDS011;58760;48.716;8.962;2023-05-07T00:42:00;8.07;;;3.50;;
71104;SDS011;58760;48.716;8.962;2023-05-07T00:44:26;6.70;;;2.83;;
71104;SDS011;58760;48.716;8.962;2023-05-07T00:46:51;6.80;;;3.40;;
71104;SDS011;58760;48.716;8.962;2023-05-07T00:49:18;5.88;;;2.60;;
71104;SDS011;58760;48.716;8.962;2023-05-07T00:51:44;6.88;;;2.63;;
71104;SDS011;58760;48.716;8.962;2023-05-07T00:54:10;6.00;;;2.67;;
71104;SDS011;58760;48.716;8.962;2023-05-07T00:56:36;6.10;;;2.55;;
71104;SDS011;58760;48.716;8.962;2023-05-07T00:59:01;7.90;;;3.30;;
71104;SDS011;58760;48.716;8.962;2023-05-07T01:01:28;8.23;;;3.00;;
71104;SDS011;58760;48.716;8.962;2023-05-07T01:03:53;10.27;;;3.22;;
71104;SDS011;58760;48.716;8.962;2023-05-07T01:06:19;6.78;;;3.17;;
71104;SDS011;58760;48.716;8.962;2023-05-07T01:08:46;7.90;;;3.28;;
71104;SDS011;58760;48.716;8.962;2023-05-07T01:11:13;6.53;;;2.95;;
71104;SDS011;58760;48.716;8.962;2023-05-07T01:13:39;7.18;;;3.17;;
71104;SDS011;58760;48.716;8.962;2023-05-07T01:16:05;8.65;;;3.20;;
71104;SDS011;58760;48.716;8.962;2023-05-07T01:18:31;7.95;;;3.60;;
71104;SDS011;58760;48.716;8.962;2023-05-07T01:21:00;7.63;;;3.00;;
71104;SDS011;58760;48.716;8.962;2023-05-07T01:23:28;7.53;;;3.17;;
71104;SDS011;58760;48.716;8.962;2023-05-07T01:25:55;5.65;;;2.80;;
71104;SDS011;58760;48.716;8.962;2023-05-07T01:28:20;5.75;;;2.70;;
71104;SDS011;58760;48.716;8.962;2023-05-07T01:30:47;8.27;;;3.00;;
71104;SDS011;58760;48.716;8.962;2023-05-07T01:33:18;6.25;;;3.00;;
71104;SDS011;58760;48.716;8.962;2023-05-07T01:35:50;8.45;;;3.30;;
71104;SDS011;58760;48.716;8.962;2023-05-07T01:38:18;6.07;;;3.10;;
71104;SDS011;58760;48.716;8.962;2023-05-07T01:40:44;7.50;;;3.10;;
71104;SDS011;58760;48.716;8.962;2023-05-07T01:43:10;6.50;;;3.03;;
71104;SDS011;58760;48.716;8.962;2023-05-07T01:45:35;7.93;;;3.15;;
71104;SDS011;58760;48.716;8.962;2023-05-07T01:48:02;5.55;;;2.70;;
71104;SDS011;58760;48.716;8.962;2023-05-07T01:50:28;5.95;;;3.00;;
71104;SDS011;58760;48.716;8.962;2023-05-07T01:52:54;7.03;;;3.30;;
71104;SDS011;58760;48.716;8.962;2023-05-07T01:55:20;8.02;;;2.90;;
71104;SDS011;58760;48.716;8.962;2023-05-07T01:57:46;7.82;;;3.33;;
71104;SDS011;58760;48.716;8.962;2023-05-07T02:00:11;6.70;;;3.08;;
71104;SDS011;58760;48.716;8.962;2023-05-07T02:02:37;6.05;;;3.00;;
71104;SDS011;58760;48.716;8.962;2023-05-07T02:05:03;7.97;;;2.72;;
71104;SDS011;58760;48.716;8.962;2023-05-07T02:07:29;7.95;;;3.22;;
71104;SDS011;58760;48.716;8.962;2023-05-07T02:09:54;6.07;;;3.00;;
71104;SDS011;58760;48.716;8.962;2023-05-07T02:12:20;7.57;;;2.90;;
71104;SDS011;58760;48.716;8.962;2023-05-07T02:14:46;8.02;;;3.40;;
71104;SDS011;58760;48.716;8.962;2023-05-07T02:17:11;7.03;;;3.42;;
71104;SDS011;58760;48.716;8.962;2023-05-07T02:19:37;7.57;;;3.42;;
71104;SDS011;58760;48.716;8.962;2023-05-07T02:22:02;6.75;;;3.38;;
71104;SDS011;58760;48.716;8.962;2023-05-07T02:24:27;7.05;;;3.15;;
71104;SDS011;58760;48.716;8.962;2023-05-07T02:26:53;6.35;;;3.28;;
71104;SDS011;58760;48.716;8.962;2023-05-07T02:29:18;7.55;;;3.40;;
71104;SDS011;58760;48.716;8.962;2023-05-07T02:31:43;7.95;;;3.42;;
71104;SDS011;58760;48.716;8.962;2023-05-07T02:34:08;9.35;;;3.45;;
71104;SDS011;58760;48.716;8.962;2023-05-07T02:36:34;7.38;;;3.22;;
71104;SDS011;58760;48.716;8.962;2023-05-07T02:38:59;7.10;;;3.28;;
71104;SDS011;58760;48.716;8.962;2023-05-07T02:41:25;9.40;;;3.40;;
71104;SDS011;58760;48.716;8.962;2023-05-07T02:43:51;7.47;;;3.60;;
71104;SDS011;58760;48.716;8.962;2023-05-07T02:46:16;7.20;;;3.22;;
71104;SDS011;58760;48.716;8.962;2023-05-07T02:48:41;7.60;;;3.22;;
71104;SDS011;58760;48.716;8.962;2023-05-07T02:51:07;6.13;;;3.00;;
71104;SDS011;58760;48.716;8.962;2023-05-07T02:53:32;7.72;;;3.03;;
71104;SDS011;58760;48.716;8.962;2023-05-07T02:55:58;6.03;;;3.00;;
71104;SDS011;58760;48.716;8.962;2023-05-07T02:58:25;5.90;;;2.97;;
71104;SDS011;58760;48.716;8.962;2023-05-07T03:00:51;6.80;;;3.22;;
71104;SDS011;58760;48.716;8.962;2023-05-07T03:03:16;6.93;;;3.10;;
71104;SDS011;58760;48.716;8.962;2023-05-07T03:05:42;6.93;;;3.10;;
71104;SDS011;58760;48.716;8.962;2023-05-07T03:08:07;6.85;;;2.97;;
71104;SDS011;58760;48.716;8.962;2023-05-07T03:10:33;6.68;;;2.72;;
71104;SDS011;58760;48.716;8.962;2023-05-07T03:12:58;6.30;;;2.92;;
71104;SDS011;58760;48.716;8.962;2023-05-07T03:15:24;6.95;;;3.20;;
71104;SDS011;58760;48.716;8.962;2023-05-07T03:17:49;6.43;;;3.38;;
71104;SDS011;58760;48.716;8.962;2023-05-07T03:20:15;8.70;;;3.22;;
71104;SDS011;58760;48.716;8.962;2023-05-07T03:22:41;7.80;;;3.13;;
71104;SDS011;58760;48.716;8.962;2023-05-07T03:25:06;8.30;;;3.17;;
71104;SDS011;58760;48.716;8.962;2023-05-07T03:27:32;6.35;;;3.05;;
71104;SDS011;58760;48.716;8.962;2023-05-07T03:33:19;9.25;;;2.90;;
71104;SDS011;58760;48.716;8.962;2023-05-07T03:35:45;9.02;;;3.60;;
71104;SDS011;58760;48.716;8.962;2023-05-07T03:38:10;10.73;;;3.17;;
71104;SDS011;58760;48.716;8.962;2023-05-07T03:40:36;11.50;;;3.33;;
71104;SDS011;58760;48.716;8.962;2023-05-07T03:43:01;7.78;;;3.35;;
71104;SDS011;58760;48.716;8.962;2023-05-07T03:45:27;6.57;;;3.10;;
71104;SDS011;58760;48.716;8.962;2023-05-07T03:47:52;7.72;;;3.28;;
71104;SDS011;58760;48.716;8.962;2023-05-07T03:50:17;8.57;;;3.08;;
71104;SDS011;58760;48.716;8.962;2023-05-07T03:52:43;7.88;;;3.58;;
71104;SDS011;58760;48.716;8.962;2023-05-07T03:55:08;5.53;;;3.03;;
71104;SDS011;58760;48.716;8.962;2023-05-07T03:57:33;6.60;;;2.95;;
71104;SDS011;58760;48.716;8.962;2023-05-07T03:59:59;6.32;;;3.00;;
71104;SDS011;58760;48.716;8.962;2023-05-07T04:02:24;6.47;;;3.05;;
71104;SDS011;58760;48.716;8.962;2023-05-07T04:04:49;5.13;;;2.67;;
71104;SDS011;58760;48.716;8.962;2023-05-07T04:07:15;6.05;;;3.05;;
71104;SDS011;58760;48.716;8.962;2023-05-07T04:09:41;5.20;;;2.75;;
71104;SDS011;58760;48.716;8.962;2023-05-07T04:12:06;6.00;;;3.05;;
71104;SDS011;58760;48.716;8.962;2023-05-07T04:14:31;5.95;;;3.13;;
71104;SDS011;58760;48.716;8.962;2023-05-07T04:16:57;9.40;;;3.20;;
71104;SDS011;58760;48.716;8.962;2023-05-07T04:19:24;5.30;;;2.83;;
71104;SDS011;58760;48.716;8.962;2023-05-07T04:21:50;7.40;;;3.10;;
71104;SDS011;58760;48.716;8.962;2023-05-07T04:24:15;6.88;;;3.05;;
71104;SDS011;58760;48.716;8.962;2023-05-07T04:26:40;6.68;;;3.30;;
71104;SDS011;58760;48.716;8.962;2023-05-07T04:29:06;7.20;;;3.00;;
71104;SDS011;58760;48.716;8.962;2023-05-07T04:31:31;6.40;;;2.78;;
71104;SDS011;58760;48.716;8.962;2023-05-07T04:33:57;6.25;;;2.97;;
71104;SDS011;58760;48.716;8.962;2023-05-07T04:36:22;7.47;;;3.85;;
71104;SDS011;58760;48.716;8.962;2023-05-07T04:38:50;7.50;;;3.55;;
71104;SDS011;58760;48.716;8.962;2023-05-07T04:41:16;6.75;;;2.88;;
71104;SDS011;58760;48.716;8.962;2023-05-07T04:43:41;8.63;;;2.67;;
71104;SDS011;58760;48.716;8.962;2023-05-07T04:46:07;6.05;;;2.35;;
71104;SDS011;58760;48.716;8.962;2023-05-07T04:48:33;6.30;;;2.88;;
71104;SDS011;58760;48.716;8.962;2023-05-07T04:50:58;7.30;;;2.67;;
71104;SDS011;58760;48.716;8.962;2023-05-07T04:53:24;6.18;;;3.13;;
71104;SDS011;58760;48.716;8.962;2023-05-07T04:55:54;5.65;;;2.78;;
71104;SDS011;58760;48.716;8.962;2023-05-07T04:58:20;5.68;;;2.50;;
71104;SDS011;58760;48.716;8.962;2023-05-07T05:00:46;5.82;;;2.75;;
71104;SDS011;58760;48.716;8.962;2023-05-07T05:03:11;8.70;;;2.47;;
71104;SDS011;58760;48.716;8.962;2023-05-07T05:05:37;7.50;;;2.92;;
71104;SDS011;58760;48.716;8.962;2023-05-07T05:08:03;5.43;;;2.60;;
71104;SDS011;58760;48.716;8.962;2023-05-07T05:10:28;7.72;;;2.65;;
71104;SDS011;58760;48.716;8.962;2023-05-07T05:12:53;5.47;;;2.50;;
71104;SDS011;58760;48.716;8.962;2023-05-07T05:15:19;5.68;;;2.60;;
71104;SDS011;58760;48.716;8.962;2023-05-07T05:17:44;5.43;;;2.50;;
71104;SDS011;58760;48.716;8.962;2023-05-07T05:20:10;8.18;;;2.92;;
71104;SDS011;58760;48.716;8.962;2023-05-07T05:22:36;5.63;;;2.78;;
71104;SDS011;58760;48.716;8.962;2023-05-07T05:25:02;5.78;;;2.50;;
71104;SDS011;58760;48.716;8.962;2023-05-07T05:27:28;6.65;;;3.03;;
71104;SDS011;58760;48.716;8.962;2023-05-07T05:29:53;7.35;;;2.92;;
71104;SDS011;58760;48.716;8.962;2023-05-07T05:32:19;8.43;;;2.90;;
71104;SDS011;58760;48.716;8.962;2023-05-07T05:34:44;6.13;;;2.88;;
71104;SDS011;58760;48.716;8.962;2023-05-07T05:37:10;7.82;;;3.03;;
71104;SDS011;58760;48.716;8.962;2023-05-07T05:39:35;6.88;;;2.90;;
71104;SDS011;58760;48.716;8.962;2023-05-07T05:42:01;6.45;;;3.03;;
71104;SDS011;58760;48.716;8.962;2023-05-07T05:44:27;8.90;;;3.28;;
71104;SDS011;58760;48.716;8.962;2023-05-07T05:46:52;8.57;;;3.03;;
71104;SDS011;58760;48.716;8.962;2023-05-07T05:49:20;6.97;;;3.47;;
71104;SDS011;58760;48.716;8.962;2023-05-07T05:51:45;6.53;;;2.95;;
71104;SDS011;58760;48.716;8.962;2023-05-07T05:54:11;6.65;;;2.78;;
71104;SDS011;58760;48.716;8.962;2023-05-07T05:56:36;5.53;;;2.83;;
71104;SDS011;58760;48.716;8.962;2023-05-07T05:59:02;6.65;;;2.80;;
71104;SDS011;58760;48.716;8.962;2023-05-07T06:01:28;9.43;;;3.05;;
71104;SDS011;58760;48.716;8.962;2023-05-07T06:03:53;6.07;;;2.67;;
71104;SDS011;58760;48.716;8.962;2023-05-07T06:06:19;5.32;;;2.60;;
71104;SDS011;58760;48.716;8.962;2023-05-07T06:08:44;5.63;;;2.90;;
71104;SDS011;58760;48.716;8.962;2023-05-07T06:11:09;7.47;;;3.08;;
71104;SDS011;58760;48.716;8.962;2023-05-07T06:13:35;7.50;;;3.30;;
71104;SDS011;58760;48.716;8.962;2023-05-07T06:16:00;7.45;;;3.30;;
71104;SDS011;58760;48.716;8.962;2023-05-07T06:18:25;5.97;;;3.13;;
71104;SDS011;58760;48.716;8.962;2023-05-07T06:20:51;7.05;;;3.28;;
71104;SDS011;58760;48.716;8.962;2023-05-07T06:23:17;6.03;;;3.03;;
71104;SDS011;58760;48.716;8.962;2023-05-07T06:25:45;9.70;;;3.30;;
71104;SDS011;58760;48.716;8.962;2023-05-07T06:28:13;7.75;;;3.40;;
71104;SDS011;58760;48.716;8.962;2023-05-07T06:30:38;8.40;;;3.58;;
71104;SDS011;58760;48.716;8.962;2023-05-07T06:33:05;5.63;;;3.13;;
71104;SDS011;58760;48.716;8.962;2023-05-07T06:35:30;8.13;;;3.13;;
71104;SDS011;58760;48.716;8.962;2023-05-07T06:37:55;12.27;;;4.20;;
71104;SDS011;58760;48.716;8.962;2023-05-07T06:40:21;7.28;;;3.60;;
71104;SDS011;58760;48.716;8.962;2023-05-07T06:42:46;7.30;;;3.25;;
71104;SDS011;58760;48.716;8.962;2023-05-07T06:45:11;8.10;;;3.60;;
71104;SDS011;58760;48.716;8.962;2023-05-07T06:47:37;8.65;;;3.35;;
71104;SDS011;58760;48.716;8.962;2023-05-07T06:50:02;6.13;;;3.35;;
71104;SDS011;58760;48.716;8.962;2023-05-07T06:52:28;6.53;;;3.20;;
71104;SDS011;58760;48.716;8.962;2023-05-07T06:54:53;6.72;;;3.03;;
71104;SDS011;58760;48.716;8.962;2023-05-07T06:57:18;6.28;;;3.30;;
71104;SDS011;58760;48.716;8.962;2023-05-07T06:59:44;7.18;;;3.25;;
71104;SDS011;58760;48.716;8.962;2023-05-07T07:02:10;6.47;;;3.40;;
71104;SDS011;58760;48.716;8.962;2023-05-07T07:04:35;7.93;;;3.53;;
71104;SDS011;58760;48.716;8.962;2023-05-07T07:07:00;6.97;;;3.50;;
71104;SDS011;58760;48.716;8.962;2023-05-07T07:09:26;6.65;;;3.20;;
71104;SDS011;58760;48.716;8.962;2023-05-07T07:11:51;6.90;;;3.20;;
71104;SDS011;58760;48.716;8.962;2023-05-07T07:14:16;7.35;;;3.10;;
71104;SDS011;58760;48.716;8.962;2023-05-07T07:16:42;7.72;;;3.67;;
71104;SDS011;58760;48.716;8.962;2023-05-07T07:19:07;7.57;;;3.00;;
71104;SDS011;58760;48.716;8.962;2023-05-07T07:21:33;5.32;;;2.92;;
71104;SDS011;58760;48.716;8.962;2023-05-07T07:23:58;6.30;;;2.75;;
71104;SDS011;58760;48.716;8.962;2023-05-07T07:26:23;6.32;;;2.70;;
71104;SDS011;58760;48.716;8.962;2023-05-07T07:28:49;5.90;;;2.42;;
71104;SDS011;58760;48.716;8.962;2023-05-07T07:31:14;8.23;;;2.33;;
71104;SDS011;58760;48.716;8.962;2023-05-07T07:33:40;5.95;;;2.38;;
71104;SDS011;58760;48.716;8.962;2023-05-07T07:36:06;5.80;;;2.10;;
71104;SDS011;58760;48.716;8.962;2023-05-07T07:38:31;5.00;;;1.80;;
71104;SDS011;58760;48.716;8.962;2023-05-07T07:40:57;6.72;;;2.58;;
71104;SDS011;58760;48.716;8.962;2023-05-07T07:43:22;6.57;;;2.97;;
71104;SDS011;58760;48.716;8.962;2023-05-07T07:45:47;7.60;;;2.13;;
71104;SDS011;58760;48.716;8.962;2023-05-07T07:48:13;4.55;;;2.10;;
71104;SDS011;58760;48.716;8.962;2023-05-07T07:50:38;5.32;;;2.10;;
71104;SDS011;58760;48.716;8.962;2023-05-07T07:53:04;4.28;;;1.77;;
71104;SDS011;58760;48.716;8.962;2023-05-07T07:55:29;5.47;;;2.08;;
71104;SDS011;58760;48.716;8.962;2023-05-07T07:57:56;3.75;;;2.00;;
71104;SDS011;58760;48.716;8.962;2023-05-07T08:00:21;5.10;;;2.10;;
71104;SDS011;58760;48.716;8.962;2023-05-07T08:02:46;7.93;;;2.00;;
71104;SDS011;58760;48.716;8.962;2023-05-07T08:05:12;4.10;;;1.80;;
71104;SDS011;58760;48.716;8.962;2023-05-07T08:07:37;2.92;;;1.77;;
71104;SDS011;58760;48.716;8.962;2023-05-07T08:10:03;4.65;;;1.90;;
71104;SDS011;58760;48.716;8.962;2023-05-07T08:12:28;4.65;;;1.90;;
71104;SDS011;58760;48.716;8.962;2023-05-07T08:14:54;4.82;;;1.83;;
71104;SDS011;58760;48.716;8.962;2023-05-07T08:17:19;4.95;;;1.95;;
71104;SDS011;58760;48.716;8.962;2023-05-07T08:19:47;5.68;;;1.83;;
71104;SDS011;58760;48.716;8.962;2023-05-07T08:22:13;5.85;;;1.90;;
71104;SDS011;58760;48.716;8.962;2023-05-07T08:24:38;5.65;;;2.05;;
71104;SDS011;58760;48.716;8.962;2023-05-07T08:27:04;3.22;;;1.50;;
71104;SDS011;58760;48.716;8.962;2023-05-07T08:29:29;4.50;;;1.52;;
71104;SDS011;58760;48.716;8.962;2023-05-07T08:31:55;3.85;;;1.42;;
71104;SDS011;58760;48.716;8.962;2023-05-07T08:34:21;3.85;;;1.50;;
71104;SDS011;58760;48.716;8.962;2023-05-07T08:36:46;4.68;;;1.83;;
71104;SDS011;58760;48.716;8.962;2023-05-07T08:39:13;3.47;;;1.45;;
71104;SDS011;58760;48.716;8.962;2023-05-07T08:41:40;2.90;;;1.13;;
71104;SDS011;58760;48.716;8.962;2023-05-07T08:44:11;3.92;;;1.50;;
71104;SDS011;58760;48.716;8.962;2023-05-07T08:46:38;1.73;;;1.13;;
71104;SDS011;58760;48.716;8.962;2023-05-07T08:49:04;3.33;;;1.40;;
71104;SDS011;58760;48.716;8.962;2023-05-07T08:51:29;3.65;;;1.35;;
71104;SDS011;58760;48.716;8.962;2023-05-07T08:53:56;3.40;;;1.33;;
71104;SDS011;58760;48.716;8.962;2023-05-07T08:56:21;5.40;;;1.58;;
71104;SDS011;58760;48.716;8.962;2023-05-07T08:58:47;3.40;;;1.45;;
71104;SDS011;58760;48.716;8.962;2023-05-07T09:01:13;3.25;;;1.30;;
71104;SDS011;58760;48.716;8.962;2023-05-07T09:03:40;3.35;;;1.40;;
71104;SDS011;58760;48.716;8.962;2023-05-07T09:06:09;3.33;;;1.83;;
71104;SDS011;58760;48.716;8.962;2023-05-07T09:08:35;7.63;;;1.50;;
71104;SDS011;58760;48.716;8.962;2023-05-07T09:11:01;3.10;;;1.40;;
71104;SDS011;58760;48.716;8.962;2023-05-07T09:13:27;5.65;;;1.55;;
71104;SDS011;58760;48.716;8.962;2023-05-07T09:15:53;2.75;;;1.38;;
71104;SDS011;58760;48.716;8.962;2023-05-07T09:18:19;7.53;;;1.90;;
71104;SDS011;58760;48.716;8.962;2023-05-07T09:20:44;4.20;;;1.50;;
71104;SDS011;58760;48.716;8.962;2023-05-07T09:23:10;3.42;;;1.30;;
71104;SDS011;58760;48.716;8.962;2023-05-07T09:25:35;4.95;;;1.60;;
71104;SDS011;58760;48.716;8.962;2023-05-07T09:30:28;5.38;;;1.50;;
71104;SDS011;58760;48.716;8.962;2023-05-07T09:32:55;4.05;;;1.40;;
71104;SDS011;58760;48.716;8.962;2023-05-07T09:35:21;3.30;;;1.45;;
71104;SDS011;58760;48.716;8.962;2023-05-07T09:37:49;4.15;;;1.48;;
71104;SDS011;58760;48.716;8.962;2023-05-07T09:40:25;4.72;;;1.55;;
71104;SDS011;58760;48.716;8.962;2023-05-07T09:42:52;4.07;;;1.40;;
71104;SDS011;58760;48.716;8.962;2023-05-07T09:45:27;4.47;;;1.70;;
71104;SDS011;58760;48.716;8.962;2023-05-07T09:47:54;4.60;;;1.73;;
71104;SDS011;58760;48.716;8.962;2023-05-07T09:50:32;5.20;;;1.50;;
71104;SDS011;58760;48.716;8.962;2023-05-07T09:53:05;5.63;;;1.60;;
71104;SDS011;58760;48.716;8.962;2023-05-07T09:55:34;8.10;;;1.70;;
71104;SDS011;58760;48.716;8.962;2023-05-07T09:58:00;5.28;;;1.80;;
71104;SDS011;58760;48.716;8.962;2023-05-07T10:00:27;5.53;;;1.85;;
71104;SDS011;58760;48.716;8.962;2023-05-07T10:02:54;5.90;;;1.67;;
71104;SDS011;58760;48.716;8.962;2023-05-07T10:05:22;4.38;;;1.67;;
71104;SDS011;58760;48.716;8.962;2023-05-07T10:07:47;4.47;;;1.55;;
71104;SDS011;58760;48.716;8.962;2023-05-07T10:12:40;3.50;;;1.70;;
71104;SDS011;58760;48.716;8.962;2023-05-07T10:15:06;4.60;;;1.60;;
71104;SDS011;58760;48.716;8.962;2023-05-07T10:17:37;5.10;;;1.70;;
71104;SDS011;58760;48.716;8.962;2023-05-07T10:20:04;3.28;;;1.42;;
71104;SDS011;58760;48.716;8.962;2023-05-07T10:22:43;3.47;;;1.60;;
71104;SDS011;58760;48.716;8.962;2023-05-07T10:25:32;3.13;;;1.50;;
71104;SDS011;58760;48.716;8.962;2023-05-07T10:27:57;5.32;;;1.80;;
71104;SDS011;58760;48.716;8.962;2023-05-07T10:33:10;5.40;;;1.33;;
71104;SDS011;58760;48.716;8.962;2023-05-07T10:35:39;7.10;;;1.63;;
71104;SDS011;58760;48.716;8.962;2023-05-07T10:38:06;5.60;;;1.70;;
71104;SDS011;58760;48.716;8.962;2023-05-07T10:43:01;5.00;;;1.77;;
71104;SDS011;58760;48.716;8.962;2023-05-07T10:45:29;5.45;;;1.80;;
71104;SDS011;58760;48.716;8.962;2023-05-07T10:50:31;4.18;;;1.40;;
71104;SDS011;58760;48.716;8.962;2023-05-07T10:55:40;3.88;;;1.42;;
71104;SDS011;58760;48.716;8.962;2023-05-07T11:00:46;7.70;;;1.63;;
71104;SDS011;58760;48.716;8.962;2023-05-07T11:05:37;4.35;;;1.42;;
71104;SDS011;58760;48.716;8.962;2023-05-07T11:13:12;4.68;;;1.40;;
71104;SDS011;58760;48.716;8.962;2023-05-07T11:15:40;3.67;;;1.55;;
71104;SDS011;58760;48.716;8.962;2023-05-07T11:18:16;4.53;;;1.48;;
71104;SDS011;58760;48.716;8.962;2023-05-07T11:20:49;4.43;;;1.60;;
71104;SDS011;58760;48.716;8.962;2023-05-07T11:28:38;3.55;;;1.65;;
71104;SDS011;58760;48.716;8.962;2023-05-07T11:31:05;5.70;;;1.80;;
71104;SDS011;58760;48.716;8.962;2023-05-07T11:35:57;4.93;;;1.70;;
71104;SDS011;58760;48.716;8.962;2023-05-07T11:38:23;6.78;;;1.80;;
71104;SDS011;58760;48.716;8.962;2023-05-07T11:40:50;5.93;;;2.10;;
71104;SDS011;58760;48.716;8.962;2023-05-07T11:43:21;4.50;;;2.20;;
71104;SDS011;58760;48.716;8.962;2023-05-07T11:45:47;5.65;;;2.55;;
71104;SDS011;58760;48.716;8.962;2023-05-07T11:48:13;5.20;;;1.90;;
71104;SDS011;58760;48.716;8.962;2023-05-07T11:50:59;5.40;;;2.22;;
71104;SDS011;58760;48.716;8.962;2023-05-07T11:53:27;11.77;;;3.28;;
71104;SDS011;58760;48.716;8.962;2023-05-07T11:55:54;10.00;;;3.50;;
71104;SDS011;58760;48.716;8.962;2023-05-07T11:58:21;13.95;;;3.78;;
71104;SDS011;58760;48.716;8.962;2023-05-07T12:00:51;14.15;;;4.35;;
71104;SDS011;58760;48.716;8.962;2023-05-07T12:03:17;9.75;;;3.60;;
71104;SDS011;58760;48.716;8.962;2023-05-07T12:05:43;12.05;;;3.53;;
71104;SDS011;58760;48.716;8.962;2023-05-07T12:08:19;7.88;;;2.40;;
71104;SDS011;58760;48.716;8.962;2023-05-07T12:10:46;10.00;;;2.50;;
71104;SDS011;58760;48.716;8.962;2023-05-07T12:13:21;15.60;;;3.05;;
71104;SDS011;58760;48.716;8.962;2023-05-07T12:15:57;6.85;;;2.40;;
71104;SDS011;58760;48.716;8.962;2023-05-07T12:18:23;9.23;;;2.72;;
71104;SDS011;58760;48.716;8.962;2023-05-07T12:20:50;6.70;;;2.50;;
71104;SDS011;58760;48.716;8.962;2023-05-07T12:23:16;8.55;;;2.55;;
71104;SDS011;58760;48.716;8.962;2023-05-07T12:25:42;10.07;;;3.03;;
71104;SDS011;58760;48.716;8.962;2023-05-07T12:28:14;6.18;;;2.58;;
71104;SDS011;58760;48.716;8.962;2023-05-07T12:30:41;7.80;;;2.00;;
71104;SDS011;58760;48.716;8.962;2023-05-07T12:33:08;8.88;;;2.60;;
71104;SDS011;58760;48.716;8.962;2023-05-07T12:35:39;6.82;;;2.40;;
71104;SDS011;58760;48.716;8.962;2023-05-07T12:38:12;7.53;;;2.78;;
71104;SDS011;58760;48.716;8.962;2023-05-07T12:40:39;8.90;;;3.25;;
71104;SDS011;58760;48.716;8.962;2023-05-07T12:43:15;7.03;;;2.70;;
71104;SDS011;58760;48.716;8.962;2023-05-07T12:45:43;8.68;;;2.70;;
71104;SDS011;58760;48.716;8.962;2023-05-07T12:50:36;6.70;;;2.80;;
71104;SDS011;58760;48.716;8.962;2023-05-07T12:53:03;7.28;;;2.60;;
71104;SDS011;58760;48.716;8.962;2023-05-07T12:55:31;7.68;;;2.40;;
71104;SDS011;58760;48.716;8.962;2023-05-07T13:00:35;6.97;;;2.42;;
71104;SDS011;58760;48.716;8.962;2023-05-07T13:03:01;4.57;;;1.90;;
71104;SDS011;58760;48.716;8.962;2023-05-07T13:05:27;6.00;;;2.47;;
71104;SDS011;58760;48.716;8.962;2023-05-07T13:07:53;5.28;;;2.13;;
71104;SDS011;58760;48.716;8.962;2023-05-07T13:10:19;6.72;;;2.40;;
71104;SDS011;58760;48.716;8.962;2023-05-07T13:12:45;5.10;;;2.40;;
71104;SDS011;58760;48.716;8.962;2023-05-07T13:15:10;7.60;;;2.50;;
71104;SDS011;58760;48.716;8.962;2023-05-07T13:17:35;9.25;;;2.97;;
71104;SDS011;58760;48.716;8.962;2023-05-07T13:20:01;7.90;;;2.72;;
71104;SDS011;58760;48.716;8.962;2023-05-07T13:22:26;4.50;;;2.00;;
71104;SDS011;58760;48.716;8.962;2023-05-07T13:24:51;2.67;;;1.50;;
71104;SDS011;58760;48.716;8.962;2023-05-07T13:27:17;3.97;;;1.60;;
71104;SDS011;58760;48.716;8.962;2023-05-07T13:29:44;4.95;;;1.70;;
71104;SDS011;58760;48.716;8.962;2023-05-07T13:32:09;5.88;;;1.90;;
71104;SDS011;58760;48.716;8.962;2023-05-07T13:34:34;4.30;;;1.67;;
71104;SDS011;58760;48.716;8.962;2023-05-07T13:37:00;4.05;;;2.05;;
71104;SDS011;58760;48.716;8.962;2023-05-07T13:39:26;3.88;;;1.70;;
71104;SDS011;58760;48.716;8.962;2023-05-07T13:41:51;5.32;;;2.30;;
71104;SDS011;58760;48.716;8.962;2023-05-07T13:44:16;6.70;;;2.00;;
71104;SDS011;58760;48.716;8.962;2023-05-07T13:46:42;5.80;;;2.40;;
71104;SDS011;58760;48.716;8.962;2023-05-07T13:49:07;6.95;;;2.42;;
71104;SDS011;58760;48.716;8.962;2023-05-07T13:51:33;9.35;;;2.65;;
71104;SDS011;58760;48.716;8.962;2023-05-07T13:53:58;4.82;;;2.10;;
71104;SDS011;58760;48.716;8.962;2023-05-07T13:56:23;3.95;;;1.88;;
71104;SDS011;58760;48.716;8.962;2023-05-07T13:58:49;7.78;;;2.42;;
71104;SDS011;58760;48.716;8.962;2023-05-07T14:01:14;6.57;;;2.50;;
71104;SDS011;58760;48.716;8.962;2023-05-07T14:03:39;6.78;;;2.60;;
71104;SDS011;58760;48.716;8.962;2023-05-07T14:06:05;7.10;;;2.83;;
71104;SDS011;58760;48.716;8.962;2023-05-07T14:08:30;6.53;;;2.67;;
71104;SDS011;58760;48.716;8.962;2023-05-07T14:10:55;6.28;;;2.83;;
71104;SDS011;58760;48.716;8.962;2023-05-07T14:13:21;6.45;;;2.60;;
71104;SDS011;58760;48.716;8.962;2023-05-07T14:15:46;5.30;;;2.45;;
71104;SDS011;58760;48.716;8.962;2023-05-07T14:18:13;6.40;;;2.42;;
71104;SDS011;58760;48.716;8.962;2023-05-07T14:20:38;8.35;;;2.83;;
71104;SDS011;58760;48.716;8.962;2023-05-07T14:23:04;5.50;;;2.65;;
71104;SDS011;58760;48.716;8.962;2023-05-07T14:25:29;7.28;;;2.70;;
71104;SDS011;58760;48.716;8.962;2023-05-07T14:27:55;7.30;;;2.63;;
71104;SDS011;58760;48.716;8.962;2023-05-07T14:30:20;8.30;;;3.00;;
71104;SDS011;58760;48.716;8.962;2023-05-07T14:32:47;6.07;;;2.45;;
71104;SDS011;58760;48.716;8.962;2023-05-07T14:35:13;7.03;;;2.67;;
71104;SDS011;58760;48.716;8.962;2023-05-07T14:37:39;6.88;;;2.20;;
71104;SDS011;58760;48.716;8.962;2023-05-07T14:40:05;7.20;;;2.40;;
71104;SDS011;58760;48.716;8.962;2023-05-07T14:44:56;5.60;;;1.93;;
71104;SDS011;58760;48.716;8.962;2023-05-07T14:47:21;5.85;;;1.90;;
71104;SDS011;58760;48.716;8.962;2023-05-07T14:49:47;5.32;;;2.30;;
71104;SDS011;58760;48.716;8.962;2023-05-07T14:52:12;4.47;;;2.08;;
71104;SDS011;58760;48.716;8.962;2023-05-07T14:54:37;7.10;;;2.17;;
71104;SDS011;58760;48.716;8.962;2023-05-07T14:57:04;5.97;;;1.77;;
71104;SDS011;58760;48.716;8.962;2023-05-07T14:59:30;3.60;;;1.67;;
71104;SDS011;58760;48.716;8.962;2023-05-07T15:01:57;5.32;;;1.83;;
71104;SDS011;58760;48.716;8.962;2023-05-07T15:04:23;5.28;;;2.40;;
71104;SDS011;58760;48.716;8.962;2023-05-07T15:06:49;7.97;;;2.65;;
71104;SDS011;58760;48.716;8.962;2023-05-07T15:09:14;8.05;;;2.60;;
71104;SDS011;58760;48.716;8.962;2023-05-07T15:11:40;8.82;;;3.35;;
71104;SDS011;58760;48.716;8.962;2023-05-07T15:14:05;6.90;;;2.40;;
71104;SDS011;58760;48.716;8.962;2023-05-07T15:16:31;6.75;;;2.42;;
71104;SDS011;58760;48.716;8.962;2023-05-07T15:18:57;4.40;;;1.70;;
71104;SDS011;58760;48.716;8.962;2023-05-07T15:21:23;5.20;;;2.00;;
71104;SDS011;58760;48.716;8.962;2023-05-07T15:23:48;6.40;;;2.20;;
71104;SDS011;58760;48.716;8.962;2023-05-07T15:26:13;6.20;;;2.35;;